UKON/NLV METAR and TAF weather

Enter ICAO airport designator
Station Type Date Time Source
UKON METAR 2020/03/28 08:00 UTC NOAA

UKON 280800Z 08005MPS 030V120 CAVOK 13/M03 Q1013 NOSIG


Station Type Date Time Source
UKON Decoded METAR 2020/03/28 08:00 UTC NOAA

Mykolaiv, Ukraine (UKON) 47-03-29N 031-55-15E
Mar 28, 2020 - 04:00 AM EDT / 2020.03.28 0800 UTC
Wind: from the E (080 degrees) at 11 MPH (10 KT) (direction variable):0
Visibility: greater than 7 mile(s):0
Temperature: 55 F (13 C)
Dew Point: 26 F (-3 C)
Relative Humidity: 32%
Pressure (altimeter): 29.91 in. Hg (1013 hPa)
ob: UKON 280800Z 08005MPS 030V120 CAVOK 13/M03 Q1013 NOSIG
cycle: 8

Station Type Date Time Source
UKON TAF 2018/11/06 15:06 UTC NOAA

TAF
AMD TAF
AMD UKON 061502Z 0615/0724 CNL

Example: see airport list